createdAt,value
2023-04-14T00:02:35.454Z,24.43
2023-04-14T00:05:20.926Z,28.87
2023-04-14T00:08:06.042Z,27.00
2023-04-14T00:10:51.341Z,24.00
2023-04-14T00:13:36.190Z,24.00
2023-04-14T00:16:21.174Z,26.63
2023-04-14T00:19:06.408Z,26.10
2023-04-14T00:21:51.828Z,27.67
2023-04-14T00:24:37.123Z,25.90
2023-04-14T00:27:22.053Z,23.80
2023-04-14T00:30:08.113Z,27.50
2023-04-14T00:32:53.069Z,27.97
2023-04-14T00:35:38.527Z,27.63
2023-04-14T00:38:23.680Z,24.80
2023-04-14T00:41:08.864Z,24.20
2023-04-14T00:43:54.987Z,26.27
2023-04-14T00:46:40.975Z,26.20
2023-04-14T00:49:26.788Z,26.87
2023-04-14T00:52:11.929Z,27.20
2023-04-14T00:54:59.194Z,27.70
2023-04-14T00:57:45.539Z,23.70
2023-04-14T01:00:30.940Z,28.60
2023-04-14T01:03:16.494Z,28.43
2023-04-14T01:06:01.781Z,24.63
2023-04-14T01:08:48.560Z,26.77
2023-04-14T01:11:56.759Z,24.93
2023-04-14T01:14:53.584Z,24.80
2023-04-14T01:17:54.163Z,27.67
2023-04-14T01:20:46.896Z,27.30
2023-04-14T01:23:36.194Z,27.77
2023-04-14T01:26:30.118Z,28.13
2023-04-14T01:29:49.718Z,27.67
2023-04-14T01:32:39.941Z,28.87
2023-04-14T01:35:54.240Z,26.87
2023-04-14T01:38:42.551Z,29.20
2023-04-14T01:41:30.001Z,28.07
2023-04-14T01:44:19.243Z,26.33
2023-04-14T01:47:08.041Z,27.00
2023-04-14T01:49:55.371Z,28.10
2023-04-14T01:52:44.404Z,29.77
2023-04-14T01:55:31.822Z,28.73
2023-04-14T01:58:19.383Z,29.77
2023-04-14T02:01:05.692Z,30.60
2023-04-14T02:03:51.307Z,27.97
2023-04-14T02:06:38.850Z,24.90
2023-04-14T02:09:27.941Z,26.83
2023-04-14T02:12:13.356Z,28.77
2023-04-14T02:15:01.766Z,33.03
2023-04-14T02:17:49.281Z,23.37
2023-04-14T02:20:36.012Z,26.30
2023-04-14T02:23:21.614Z,27.67
2023-04-14T02:26:17.265Z,28.53
2023-04-14T02:29:09.749Z,29.97
2023-04-14T02:32:02.623Z,30.77
2023-04-14T02:35:10.491Z,28.60
2023-04-14T02:38:23.672Z,28.50
2023-04-14T02:41:13.394Z,27.03
2023-04-14T02:44:14.411Z,25.00
2023-04-14T02:47:10.533Z,32.80
2023-04-14T02:49:57.070Z,26.80
2023-04-14T02:52:44.713Z,27.93
2023-04-14T02:55:31.654Z,30.10
2023-04-14T02:58:17.482Z,29.47
2023-04-14T03:01:02.730Z,28.93
2023-04-14T03:03:49.544Z,32.53
2023-04-14T03:06:36.793Z,32.13
2023-04-14T03:09:22.621Z,29.70
2023-04-14T03:12:10.496Z,30.47
2023-04-14T03:14:55.901Z,27.73
2023-04-14T03:17:43.055Z,31.33
2023-04-14T03:20:29.010Z,31.93
2023-04-14T03:23:16.587Z,29.67
2023-04-14T03:26:03.645Z,32.70
2023-04-14T03:28:50.608Z,29.97
2023-04-14T03:31:37.826Z,32.13
2023-04-14T03:34:28.047Z,34.50
2023-04-14T03:37:16.740Z,30.83
2023-04-14T03:40:03.126Z,32.00
2023-04-14T03:42:49.627Z,29.23
2023-04-14T03:45:34.810Z,27.20
2023-04-14T03:48:21.909Z,25.93
2023-04-14T03:51:10.392Z,30.40
2023-04-14T03:53:57.943Z,26.20
2023-04-14T03:56:46.035Z,27.40
2023-04-14T03:59:33.296Z,26.50
2023-04-14T04:02:19.094Z,28.57
2023-04-14T04:05:04.936Z,28.37
2023-04-14T04:07:51.854Z,28.87
2023-04-14T04:10:38.321Z,27.67
2023-04-14T04:13:24.150Z,35.20
2023-04-14T04:16:11.478Z,31.37
2023-04-14T04:18:56.964Z,30.60
2023-04-14T04:21:45.063Z,27.93
2023-04-14T04:24:34.769Z,30.57
2023-04-14T04:27:27.747Z,27.10
2023-04-14T04:30:14.620Z,27.67
2023-04-14T04:33:03.044Z,29.43
2023-04-14T04:35:48.708Z,29.20
2023-04-14T04:38:33.830Z,30.07
2023-04-14T04:41:27.890Z,29.67
2023-04-14T04:44:12.748Z,30.60
2023-04-14T04:46:57.712Z,27.30
2023-04-14T04:49:42.591Z,24.37
2023-04-14T04:52:27.873Z,26.37
2023-04-14T04:55:13.325Z,27.83
2023-04-14T04:57:58.333Z,28.93
2023-04-14T05:00:43.761Z,25.20
2023-04-14T05:03:29.103Z,24.57
2023-04-14T05:06:14.449Z,25.63
2023-04-14T05:09:00.148Z,27.87
2023-04-14T05:11:45.573Z,29.80
2023-04-14T05:14:30.572Z,27.07
2023-04-14T05:17:15.940Z,28.67
2023-04-14T05:20:01.321Z,33.53
2023-04-14T05:22:46.699Z,26.43
2023-04-14T05:25:32.017Z,26.20
2023-04-14T05:28:17.070Z,27.60
2023-04-14T05:31:02.468Z,27.17
2023-04-14T05:33:47.550Z,27.67
2023-04-14T05:36:32.927Z,29.30
2023-04-14T05:39:18.194Z,25.37
2023-04-14T05:42:03.338Z,25.37
2023-04-14T05:44:48.744Z,29.30
2023-04-14T05:47:34.136Z,28.20
2023-04-14T05:50:19.498Z,26.50
2023-04-14T05:53:05.087Z,24.63
2023-04-14T05:55:53.692Z,26.00
2023-04-14T05:58:39.000Z,24.53
2023-04-14T06:01:24.435Z,23.40
2023-04-14T06:04:10.075Z,24.00
2023-04-14T06:06:55.864Z,23.73
2023-04-14T06:09:41.801Z,22.90
2023-04-14T06:12:27.804Z,23.07
2023-04-14T06:15:13.095Z,22.37
2023-04-14T06:17:58.727Z,22.93
2023-04-14T06:20:45.006Z,21.33
2023-04-14T06:23:30.401Z,19.50
2023-04-14T06:26:15.394Z,22.70
2023-04-14T06:29:01.209Z,21.60
2023-04-14T06:31:46.613Z,22.23
2023-04-14T06:34:31.978Z,19.73
2023-04-14T06:37:17.637Z,20.47
2023-04-14T06:40:02.565Z,20.87
2023-04-14T06:42:48.118Z,25.30
2023-04-14T06:45:33.456Z,17.73
2023-04-14T06:48:19.002Z,19.23
2023-04-14T06:51:04.438Z,20.17
2023-04-14T06:53:49.747Z,23.50
2023-04-14T06:56:34.738Z,18.50
2023-04-14T06:59:20.076Z,22.07
2023-04-14T07:02:05.946Z,17.37
2023-04-14T07:04:51.285Z,20.50
2023-04-14T07:07:39.729Z,16.40
2023-04-14T07:10:25.247Z,18.07
2023-04-14T07:13:10.688Z,17.67
2023-04-14T07:15:56.393Z,20.73
2023-04-14T07:18:41.580Z,23.47
2023-04-14T07:21:27.530Z,22.67
2023-04-14T07:24:15.237Z,17.57
2023-04-14T07:27:00.779Z,20.17
2023-04-14T07:29:45.585Z,19.88
2023-04-14T07:32:30.604Z,17.30
2023-04-14T07:35:16.479Z,20.27
2023-04-14T07:38:01.574Z,15.80
2023-04-14T07:40:46.893Z,18.40
2023-04-14T07:43:32.741Z,21.45
2023-04-14T07:46:18.387Z,19.55
2023-04-14T07:49:03.565Z,21.08
2023-04-14T07:51:49.464Z,16.88
2023-04-14T07:54:34.840Z,17.10
2023-04-14T07:57:20.256Z,18.08
2023-04-14T08:00:06.800Z,16.92
2023-04-14T08:02:52.006Z,19.23
2023-04-14T08:05:38.015Z,17.52
2023-04-14T08:08:24.596Z,20.00
2023-04-14T08:11:09.852Z,19.83
2023-04-14T08:13:55.165Z,16.85
2023-04-14T08:16:40.795Z,17.52
2023-04-14T08:19:25.897Z,17.88
2023-04-14T08:22:10.795Z,17.92
2023-04-14T08:24:56.167Z,15.70
2023-04-14T08:27:41.680Z,41.00
2023-04-14T08:30:27.272Z,57.65
2023-04-14T08:33:12.306Z,19.40
2023-04-14T08:36:00.465Z,19.23
2023-04-14T08:38:46.119Z,19.98
2023-04-14T08:41:34.102Z,20.77
2023-04-14T08:44:19.377Z,17.90
2023-04-14T08:47:07.082Z,17.55
2023-04-14T08:50:05.491Z,16.63
2023-04-14T08:52:55.902Z,18.48
2023-04-14T08:55:42.615Z,16.38
2023-04-14T08:58:28.763Z,18.10
2023-04-14T09:01:14.822Z,15.95
2023-04-14T09:04:01.316Z,19.27
2023-04-14T09:06:47.091Z,18.00
2023-04-14T09:09:32.575Z,17.80
2023-04-14T09:12:17.750Z,16.63
2023-04-14T09:15:03.986Z,15.32
2023-04-14T09:17:49.127Z,21.63
2023-04-14T09:20:40.984Z,17.83
2023-04-14T09:23:27.318Z,18.35
2023-04-14T09:26:12.159Z,19.45
2023-04-14T09:28:56.965Z,16.67
2023-04-14T09:31:44.234Z,20.02
2023-04-14T09:34:29.740Z,17.90
2023-04-14T09:37:14.910Z,18.92
2023-04-14T09:40:00.274Z,17.08
2023-04-14T09:42:45.282Z,20.23
2023-04-14T09:45:44.232Z,18.27
2023-04-14T09:48:29.845Z,20.10
2023-04-14T09:51:14.957Z,18.65
2023-04-14T09:54:04.154Z,21.02
2023-04-14T09:56:50.010Z,16.95
2023-04-14T09:59:37.222Z,23.08
2023-04-14T10:02:22.809Z,18.00
2023-04-14T10:05:08.442Z,21.33
2023-04-14T10:07:53.550Z,16.63
2023-04-14T10:10:38.649Z,19.45
2023-04-14T10:13:23.996Z,19.95
2023-04-14T10:16:09.490Z,17.70
2023-04-14T10:18:55.781Z,17.15
2023-04-14T10:21:40.848Z,18.48
2023-04-14T10:24:26.377Z,18.05
2023-04-14T10:27:11.927Z,18.80
2023-04-14T10:29:58.375Z,17.13
2023-04-14T10:32:45.183Z,21.00
2023-04-14T10:35:39.744Z,16.98
2023-04-14T10:38:45.681Z,18.17
2023-04-14T10:41:42.924Z,21.58
2023-04-14T10:44:29.929Z,18.50
2023-04-14T10:47:23.367Z,17.65
2023-04-14T10:50:11.964Z,17.80
2023-04-14T10:52:57.040Z,18.83
2023-04-14T10:55:51.741Z,19.23
2023-04-14T10:58:38.166Z,18.15
2023-04-14T11:01:29.104Z,18.48
2023-04-14T11:04:18.119Z,16.40
2023-04-14T11:07:09.207Z,16.77
2023-04-14T11:10:18.633Z,16.27
2023-04-14T11:13:11.099Z,16.38
2023-04-14T11:16:07.202Z,17.00
2023-04-14T11:18:54.200Z,16.25
2023-04-14T11:21:48.782Z,15.88
2023-04-14T11:24:34.175Z,17.48
2023-04-14T11:27:19.341Z,17.38
2023-04-14T11:30:06.301Z,14.55
2023-04-14T11:32:53.785Z,15.15
2023-04-14T11:35:41.966Z,17.75
2023-04-14T11:38:27.607Z,14.05
2023-04-14T11:41:15.579Z,15.55
2023-04-14T11:44:00.953Z,17.33
2023-04-14T11:46:46.680Z,16.65
2023-04-14T11:49:36.068Z,13.77
2023-04-14T11:52:21.222Z,14.73
2023-04-14T11:55:07.174Z,13.80
2023-04-14T11:57:52.784Z,16.55
2023-04-14T12:00:38.067Z,11.18
2023-04-14T12:03:28.203Z,11.55
2023-04-14T12:06:13.794Z,11.50
2023-04-14T12:08:59.477Z,13.27
2023-04-14T12:11:54.462Z,12.13
2023-04-14T12:14:41.041Z,13.20
2023-04-14T12:17:26.686Z,16.25
2023-04-14T12:20:15.066Z,15.05
2023-04-14T12:23:04.404Z,13.27
2023-04-14T12:25:50.413Z,12.50
2023-04-14T12:28:35.888Z,12.30
2023-04-14T12:31:27.277Z,15.55
2023-04-14T12:34:12.823Z,13.75
2023-04-14T12:36:57.742Z,17.48
2023-04-14T12:39:54.216Z,17.95
2023-04-14T12:42:47.954Z,14.43
2023-04-14T12:45:59.863Z,13.07
2023-04-14T12:48:46.250Z,14.07
2023-04-14T12:51:38.850Z,14.98
2023-04-14T12:54:23.998Z,13.77
2023-04-14T12:57:09.282Z,15.60
2023-04-14T12:59:54.663Z,13.30
2023-04-14T13:02:40.139Z,15.07
2023-04-14T13:05:25.377Z,13.85
2023-04-14T13:08:10.345Z,15.45
2023-04-14T13:10:55.598Z,16.88
2023-04-14T13:13:41.300Z,17.48
2023-04-14T13:16:27.378Z,15.85
2023-04-14T13:19:12.853Z,16.30
2023-04-14T13:21:58.318Z,15.93
2023-04-14T13:24:43.482Z,15.15
2023-04-14T13:27:28.846Z,17.00
2023-04-14T13:30:13.678Z,15.23
2023-04-14T13:32:59.152Z,15.85
2023-04-14T13:35:44.616Z,14.70
2023-04-14T13:38:30.319Z,14.13
2023-04-14T13:41:15.909Z,13.15
2023-04-14T13:44:00.713Z,17.50
2023-04-14T13:46:46.343Z,13.73
2023-04-14T13:49:31.616Z,12.30
2023-04-14T13:52:16.985Z,12.88
2023-04-14T13:55:02.327Z,15.63
2023-04-14T13:57:47.123Z,17.95
2023-04-14T14:00:32.074Z,14.50
2023-04-14T14:03:17.564Z,13.82
2023-04-14T14:06:02.964Z,12.10
2023-04-14T14:09:05.275Z,13.75
2023-04-14T14:11:51.404Z,17.30
2023-04-14T14:14:36.334Z,15.70
2023-04-14T14:17:21.693Z,15.52
2023-04-14T14:20:10.942Z,13.70
2023-04-14T14:22:56.111Z,13.00
2023-04-14T14:25:41.778Z,16.88
2023-04-14T14:28:27.016Z,17.20
2023-04-14T14:31:14.148Z,12.77
2023-04-14T14:33:59.353Z,16.50
2023-04-14T14:36:44.554Z,15.88
2023-04-14T14:39:29.880Z,13.68
2023-04-14T14:42:15.248Z,14.02
2023-04-14T14:45:01.308Z,13.00
2023-04-14T14:47:46.445Z,14.10
2023-04-14T14:50:31.572Z,10.80
2023-04-14T14:53:19.777Z,13.77
2023-04-14T14:56:05.010Z,13.75
2023-04-14T14:58:50.471Z,14.20
2023-04-14T15:01:35.582Z,13.90
2023-04-14T15:04:20.863Z,13.63
2023-04-14T15:07:06.080Z,13.10
2023-04-14T15:09:51.065Z,11.85
2023-04-14T15:12:36.385Z,13.52
2023-04-14T15:15:21.595Z,11.02
2023-04-14T15:18:07.244Z,12.85
2023-04-14T15:20:53.672Z,16.88
2023-04-14T15:23:38.609Z,14.13
2023-04-14T15:26:24.038Z,11.88
2023-04-14T15:29:09.009Z,12.65
2023-04-14T15:31:54.324Z,13.23
2023-04-14T15:34:39.740Z,12.10
2023-04-14T15:37:24.585Z,13.73
2023-04-14T15:40:10.741Z,13.48
2023-04-14T15:42:55.997Z,11.73
2023-04-14T15:45:41.915Z,11.60
2023-04-14T15:48:27.190Z,11.18
2023-04-14T15:51:12.663Z,11.20
2023-04-14T15:53:57.871Z,10.45
2023-04-14T15:56:43.146Z,16.25
2023-04-14T15:59:29.367Z,11.85
2023-04-14T16:02:14.230Z,12.57
2023-04-14T16:04:59.668Z,13.75
2023-04-14T16:07:45.175Z,13.75
2023-04-14T16:10:30.421Z,12.30
2023-04-14T16:13:15.721Z,11.02
2023-04-14T16:16:01.006Z,14.32
2023-04-14T16:18:47.372Z,14.25
2023-04-14T16:21:32.310Z,20.92
2023-04-14T16:24:17.103Z,13.48
2023-04-14T16:27:02.416Z,11.88
2023-04-14T16:29:47.933Z,12.88
2023-04-14T16:32:32.829Z,32.80
2023-04-14T16:35:18.143Z,13.75
2023-04-14T16:38:03.305Z,11.70
2023-04-14T16:40:55.933Z,12.13
2023-04-14T16:43:40.894Z,12.00
2023-04-14T16:46:26.360Z,10.77
2023-04-14T16:49:13.490Z,9.70
2023-04-14T16:51:58.297Z,12.13
2023-04-14T16:54:43.775Z,15.35
2023-04-14T16:57:29.149Z,17.48
2023-04-14T17:00:14.839Z,14.40
2023-04-14T17:03:00.124Z,10.70
2023-04-14T17:05:45.318Z,11.45
2023-04-14T17:08:30.801Z,17.98
2023-04-14T17:11:15.782Z,14.60
2023-04-14T17:14:01.337Z,23.25
2023-04-14T17:16:46.359Z,19.30
2023-04-14T17:19:31.712Z,33.50
2023-04-14T17:22:17.144Z,14.85
2023-04-14T17:25:05.231Z,16.55
2023-04-14T17:27:50.254Z,9.90
2023-04-14T17:30:37.245Z,13.85
2023-04-14T17:33:22.560Z,11.70
2023-04-14T17:36:12.528Z,11.27
2023-04-14T17:38:58.024Z,12.82
2023-04-14T17:41:43.231Z,11.50
2023-04-14T17:44:33.521Z,9.90
2023-04-14T17:47:18.645Z,9.77
2023-04-14T17:50:04.786Z,10.05
2023-04-14T17:52:50.838Z,11.55
2023-04-14T17:55:36.728Z,11.43
2023-04-14T17:58:23.842Z,11.38
2023-04-14T18:01:09.030Z,13.43
2023-04-14T18:03:54.275Z,15.80
2023-04-14T18:06:39.562Z,22.02
2023-04-14T18:09:24.569Z,24.27
2023-04-14T18:12:09.962Z,20.67
2023-04-14T18:14:55.406Z,14.95
2023-04-14T18:17:44.313Z,17.65
2023-04-14T18:20:29.578Z,41.10
2023-04-14T18:23:15.305Z,20.23
2023-04-14T18:28:51.685Z,14.80
2023-04-14T18:31:37.129Z,15.88
2023-04-14T18:34:22.449Z,14.85
2023-04-14T18:37:08.018Z,14.13
2023-04-14T18:39:53.384Z,15.02
2023-04-14T18:42:38.887Z,15.75
2023-04-14T18:45:24.304Z,18.73
2023-04-14T18:48:09.564Z,17.05
2023-04-14T18:50:59.652Z,17.52
2023-04-14T18:53:45.203Z,16.00
2023-04-14T18:56:30.601Z,19.55
2023-04-14T18:59:16.201Z,17.63
2023-04-14T19:02:01.500Z,18.20
2023-04-14T19:04:46.941Z,19.20
2023-04-14T19:07:32.369Z,18.48
2023-04-14T19:10:18.236Z,15.77
2023-04-14T19:13:03.564Z,15.07
2023-04-14T19:15:49.007Z,19.27
2023-04-14T19:18:35.024Z,17.13
2023-04-14T19:21:20.604Z,18.85
2023-04-14T19:24:06.254Z,18.85
2023-04-14T19:26:51.227Z,15.63
2023-04-14T19:29:36.003Z,16.42
2023-04-14T19:32:21.399Z,19.10
2023-04-14T19:35:07.285Z,15.10
2023-04-14T19:37:52.685Z,18.23
2023-04-14T19:40:38.288Z,15.38
2023-04-14T19:43:23.409Z,17.55
2023-04-14T19:46:08.823Z,16.25
2023-04-14T19:48:54.050Z,15.13
2023-04-14T19:51:39.627Z,17.40
2023-04-14T19:54:24.797Z,15.65
2023-04-14T19:57:10.096Z,15.88
2023-04-14T19:59:55.474Z,19.02
2023-04-14T20:02:41.214Z,16.40
2023-04-14T20:05:26.804Z,19.15
2023-04-14T20:08:12.321Z,16.95
2023-04-14T20:10:57.593Z,17.83
2023-04-14T20:13:43.262Z,18.13
2023-04-14T20:16:28.536Z,14.82
2023-04-14T20:19:13.814Z,17.17
2023-04-14T20:21:59.230Z,17.08
2023-04-14T20:24:44.623Z,16.25
2023-04-14T20:27:29.798Z,17.17
2023-04-14T20:30:15.344Z,16.88
2023-04-14T20:33:02.062Z,16.55
2023-04-14T20:35:48.962Z,17.30
2023-04-14T20:38:34.351Z,18.48
2023-04-14T20:41:19.679Z,16.83
2023-04-14T20:44:04.539Z,17.80
2023-04-14T20:46:49.962Z,20.20
2023-04-14T20:49:35.052Z,17.55
2023-04-14T20:52:20.486Z,17.10
2023-04-14T20:55:06.487Z,18.45
2023-04-14T20:57:52.272Z,21.05
2023-04-14T21:00:37.366Z,21.95
2023-04-14T21:03:23.064Z,20.27
2023-04-14T21:06:08.373Z,21.92
2023-04-14T21:08:53.417Z,22.88
2023-04-14T21:11:38.175Z,19.85
2023-04-14T21:15:28.092Z,17.50
2023-04-14T21:17:28.308Z,19.50
2023-04-14T21:20:13.672Z,17.08
2023-04-14T21:22:58.991Z,20.17
2023-04-14T21:25:44.369Z,17.48
2023-04-14T21:28:29.765Z,18.50
2023-04-14T21:31:15.359Z,20.35
2023-04-14T21:34:00.706Z,18.33
2023-04-14T21:36:46.480Z,18.38
2023-04-14T21:39:31.344Z,18.05
2023-04-14T21:42:16.748Z,18.67
2023-04-14T21:45:01.759Z,19.33
2023-04-14T21:47:47.300Z,19.33
2023-04-14T21:50:33.288Z,19.38
2023-04-14T21:53:18.353Z,17.17
2023-04-14T21:56:10.188Z,18.30
2023-04-14T21:58:56.171Z,16.08
2023-04-14T22:01:41.752Z,19.03
2023-04-14T22:04:35.903Z,19.88
2023-04-14T22:07:21.169Z,19.17
2023-04-14T22:10:06.502Z,18.00
2023-04-14T22:12:51.710Z,21.17
2023-04-14T22:15:37.094Z,20.98
2023-04-14T22:18:23.724Z,18.80
2023-04-14T22:21:10.532Z,19.50
2023-04-14T22:23:56.855Z,17.87
2023-04-14T22:26:42.073Z,18.53
2023-04-14T22:29:27.413Z,19.83
2023-04-14T22:32:12.703Z,21.57
2023-04-14T22:34:58.025Z,21.33
2023-04-14T22:37:43.387Z,21.35
2023-04-14T22:40:28.737Z,20.10
2023-04-14T22:43:14.151Z,18.57
2023-04-14T22:45:59.607Z,20.10
2023-04-14T22:48:44.919Z,17.57
2023-04-14T22:51:30.427Z,19.63
2023-04-14T22:54:15.279Z,20.43
2023-04-14T22:57:00.653Z,21.30
2023-04-14T22:59:46.327Z,19.30
2023-04-14T23:02:31.407Z,20.67
2023-04-14T23:05:17.188Z,37.47
2023-04-14T23:08:02.466Z,23.00
2023-04-14T23:10:47.348Z,19.83
2023-04-14T23:13:32.811Z,22.07
2023-04-14T23:16:18.636Z,21.40
2023-04-14T23:19:04.361Z,22.37
2023-04-14T23:21:49.529Z,21.43
2023-04-14T23:24:34.981Z,21.20
2023-04-14T23:27:20.187Z,22.10
2023-04-14T23:30:06.379Z,20.03
2023-04-14T23:32:51.757Z,19.50
2023-04-14T23:35:37.098Z,20.87
2023-04-14T23:38:22.367Z,17.43
2023-04-14T23:41:07.778Z,16.97
2023-04-14T23:43:52.700Z,17.67
2023-04-14T23:46:38.146Z,25.20
2023-04-14T23:49:33.900Z,18.87
2023-04-14T23:52:19.948Z,17.17
2023-04-14T23:55:05.479Z,17.80
